sensor_id;sensor_type;location;lat;lon;timestamp;P1;durP1;ratioP1;P2;durP2;ratioP2
568;SDS011;269;48.884;9.192;2023-02-07T00:01:08;9.77;;;8.20;;
568;SDS011;269;48.884;9.192;2023-02-07T00:03:36;8.88;;;7.97;;
568;SDS011;269;48.884;9.192;2023-02-07T00:06:04;8.65;;;7.80;;
568;SDS011;269;48.884;9.192;2023-02-07T00:08:32;8.57;;;7.50;;
568;SDS011;269;48.884;9.192;2023-02-07T00:11:02;8.63;;;7.82;;
568;SDS011;269;48.884;9.192;2023-02-07T00:13:31;9.38;;;8.48;;
568;SDS011;269;48.884;9.192;2023-02-07T00:15:58;9.38;;;8.45;;
568;SDS011;269;48.884;9.192;2023-02-07T00:18:25;9.80;;;8.80;;
568;SDS011;269;48.884;9.192;2023-02-07T00:20:56;9.70;;;8.80;;
568;SDS011;269;48.884;9.192;2023-02-07T00:23:24;9.82;;;8.57;;
568;SDS011;269;48.884;9.192;2023-02-07T00:25:51;11.20;;;9.18;;
568;SDS011;269;48.884;9.192;2023-02-07T00:28:18;9.10;;;8.20;;
568;SDS011;269;48.884;9.192;2023-02-07T00:30:46;9.60;;;8.60;;
568;SDS011;269;48.884;9.192;2023-02-07T00:33:13;9.70;;;8.70;;
568;SDS011;269;48.884;9.192;2023-02-07T00:35:41;12.80;;;8.93;;
568;SDS011;269;48.884;9.192;2023-02-07T00:38:08;11.63;;;8.95;;
568;SDS011;269;48.884;9.192;2023-02-07T00:40:35;10.73;;;9.25;;
568;SDS011;269;48.884;9.192;2023-02-07T00:43:02;10.40;;;9.38;;
568;SDS011;269;48.884;9.192;2023-02-07T00:45:29;10.35;;;9.45;;
568;SDS011;269;48.884;9.192;2023-02-07T00:47:57;11.35;;;9.52;;
568;SDS011;269;48.884;9.192;2023-02-07T00:50:24;12.32;;;10.52;;
568;SDS011;269;48.884;9.192;2023-02-07T00:52:51;11.10;;;10.00;;
568;SDS011;269;48.884;9.192;2023-02-07T00:55:18;12.50;;;11.20;;
568;SDS011;269;48.884;9.192;2023-02-07T00:57:45;12.38;;;11.00;;
568;SDS011;269;48.884;9.192;2023-02-07T01:00:13;12.73;;;11.40;;
568;SDS011;269;48.884;9.192;2023-02-07T01:02:40;13.25;;;11.55;;
568;SDS011;269;48.884;9.192;2023-02-07T01:05:09;12.10;;;10.85;;
568;SDS011;269;48.884;9.192;2023-02-07T01:07:36;13.52;;;11.02;;
568;SDS011;269;48.884;9.192;2023-02-07T01:10:03;12.55;;;10.85;;
568;SDS011;269;48.884;9.192;2023-02-07T01:12:31;14.38;;;11.70;;
568;SDS011;269;48.884;9.192;2023-02-07T01:14:58;13.13;;;10.88;;
568;SDS011;269;48.884;9.192;2023-02-07T01:17:25;11.32;;;10.05;;
568;SDS011;269;48.884;9.192;2023-02-07T01:19:54;12.32;;;10.98;;
568;SDS011;269;48.884;9.192;2023-02-07T01:22:24;11.07;;;9.98;;
568;SDS011;269;48.884;9.192;2023-02-07T01:24:51;12.00;;;10.27;;
568;SDS011;269;48.884;9.192;2023-02-07T01:27:19;11.65;;;10.45;;
568;SDS011;269;48.884;9.192;2023-02-07T01:29:46;12.15;;;10.95;;
568;SDS011;269;48.884;9.192;2023-02-07T01:32:13;14.43;;;11.77;;
568;SDS011;269;48.884;9.192;2023-02-07T01:34:40;13.50;;;12.07;;
568;SDS011;269;48.884;9.192;2023-02-07T01:37:07;13.38;;;11.18;;
568;SDS011;269;48.884;9.192;2023-02-07T01:39:36;11.85;;;10.63;;
568;SDS011;269;48.884;9.192;2023-02-07T01:42:03;13.10;;;11.70;;
568;SDS011;269;48.884;9.192;2023-02-07T01:47:25;13.98;;;12.52;;
568;SDS011;269;48.884;9.192;2023-02-07T01:49:52;14.38;;;12.15;;
568;SDS011;269;48.884;9.192;2023-02-07T01:52:24;14.50;;;13.00;;
568;SDS011;269;48.884;9.192;2023-02-07T01:54:57;13.32;;;11.45;;
568;SDS011;269;48.884;9.192;2023-02-07T01:57:26;13.98;;;12.45;;
568;SDS011;269;48.884;9.192;2023-02-07T01:59:54;13.80;;;12.38;;
568;SDS011;269;48.884;9.192;2023-02-07T02:02:22;15.07;;;12.25;;
568;SDS011;269;48.884;9.192;2023-02-07T02:04:54;16.15;;;12.68;;
568;SDS011;269;48.884;9.192;2023-02-07T02:07:21;14.05;;;12.50;;
568;SDS011;269;48.884;9.192;2023-02-07T02:09:49;15.52;;;13.32;;
568;SDS011;269;48.884;9.192;2023-02-07T02:12:25;14.40;;;12.90;;
568;SDS011;269;48.884;9.192;2023-02-07T02:15:06;16.02;;;13.55;;
568;SDS011;269;48.884;9.192;2023-02-07T02:17:45;13.98;;;12.25;;
568;SDS011;269;48.884;9.192;2023-02-07T02:20:32;13.63;;;12.13;;
568;SDS011;269;48.884;9.192;2023-02-07T02:23:14;15.80;;;12.07;;
568;SDS011;269;48.884;9.192;2023-02-07T02:29:00;13.60;;;12.20;;
568;SDS011;269;48.884;9.192;2023-02-07T02:31:58;14.32;;;12.93;;
568;SDS011;269;48.884;9.192;2023-02-07T02:34:46;15.40;;;13.80;;
568;SDS011;269;48.884;9.192;2023-02-07T02:37:22;14.75;;;13.25;;
568;SDS011;269;48.884;9.192;2023-02-07T02:39:59;16.88;;;13.35;;
568;SDS011;269;48.884;9.192;2023-02-07T02:42:32;14.00;;;12.38;;
568;SDS011;269;48.884;9.192;2023-02-07T02:45:06;14.25;;;12.80;;
568;SDS011;269;48.884;9.192;2023-02-07T02:47:37;15.95;;;13.30;;
568;SDS011;269;48.884;9.192;2023-02-07T02:50:10;15.48;;;13.40;;
568;SDS011;269;48.884;9.192;2023-02-07T02:52:39;14.38;;;13.07;;
568;SDS011;269;48.884;9.192;2023-02-07T02:55:06;16.13;;;14.48;;
568;SDS011;269;48.884;9.192;2023-02-07T02:57:47;16.35;;;14.63;;
568;SDS011;269;48.884;9.192;2023-02-07T03:00:31;15.90;;;14.30;;
568;SDS011;269;48.884;9.192;2023-02-07T03:03:14;16.50;;;14.35;;
568;SDS011;269;48.884;9.192;2023-02-07T03:05:58;14.98;;;13.38;;
568;SDS011;269;48.884;9.192;2023-02-07T03:08:34;15.63;;;14.13;;
568;SDS011;269;48.884;9.192;2023-02-07T03:11:08;17.00;;;15.20;;
568;SDS011;269;48.884;9.192;2023-02-07T03:13:40;20.13;;;14.98;;
568;SDS011;269;48.884;9.192;2023-02-07T03:16:21;15.63;;;14.13;;
568;SDS011;269;48.884;9.192;2023-02-07T03:18:53;18.73;;;16.00;;
568;SDS011;269;48.884;9.192;2023-02-07T03:21:27;18.52;;;16.73;;
568;SDS011;269;48.884;9.192;2023-02-07T03:23:59;16.83;;;15.13;;
568;SDS011;269;48.884;9.192;2023-02-07T03:26:31;17.80;;;16.08;;
568;SDS011;269;48.884;9.192;2023-02-07T03:28:58;16.58;;;14.95;;
568;SDS011;269;48.884;9.192;2023-02-07T03:31:27;18.00;;;16.20;;
568;SDS011;269;48.884;9.192;2023-02-07T03:33:57;16.52;;;14.82;;
568;SDS011;269;48.884;9.192;2023-02-07T03:36:32;16.23;;;14.50;;
568;SDS011;269;48.884;9.192;2023-02-07T03:39:04;16.58;;;14.88;;
568;SDS011;269;48.884;9.192;2023-02-07T03:41:33;16.25;;;14.65;;
568;SDS011;269;48.884;9.192;2023-02-07T03:44:06;16.88;;;15.10;;
568;SDS011;269;48.884;9.192;2023-02-07T03:46:36;16.48;;;14.68;;
568;SDS011;269;48.884;9.192;2023-02-07T03:49:04;17.05;;;15.25;;
568;SDS011;269;48.884;9.192;2023-02-07T03:51:33;15.70;;;14.10;;
568;SDS011;269;48.884;9.192;2023-02-07T03:54:00;17.15;;;13.80;;
568;SDS011;269;48.884;9.192;2023-02-07T03:56:28;15.82;;;14.20;;
568;SDS011;269;48.884;9.192;2023-02-07T03:58:55;15.60;;;14.05;;
568;SDS011;269;48.884;9.192;2023-02-07T04:01:22;16.48;;;13.70;;
568;SDS011;269;48.884;9.192;2023-02-07T04:03:49;14.73;;;13.23;;
568;SDS011;269;48.884;9.192;2023-02-07T04:06:16;15.52;;;13.68;;
568;SDS011;269;48.884;9.192;2023-02-07T04:08:44;16.02;;;14.32;;
568;SDS011;269;48.884;9.192;2023-02-07T04:11:11;20.25;;;14.40;;
568;SDS011;269;48.884;9.192;2023-02-07T04:13:38;17.63;;;14.10;;
568;SDS011;269;48.884;9.192;2023-02-07T04:16:06;14.75;;;13.25;;
568;SDS011;269;48.884;9.192;2023-02-07T04:18:33;16.02;;;14.32;;
568;SDS011;269;48.884;9.192;2023-02-07T04:21:01;17.45;;;15.23;;
568;SDS011;269;48.884;9.192;2023-02-07T04:23:30;15.95;;;14.32;;
568;SDS011;269;48.884;9.192;2023-02-07T04:25:59;16.10;;;14.50;;
568;SDS011;269;48.884;9.192;2023-02-07T04:28:26;15.43;;;13.93;;
568;SDS011;269;48.884;9.192;2023-02-07T04:30:53;15.95;;;14.00;;
568;SDS011;269;48.884;9.192;2023-02-07T04:33:21;17.10;;;15.30;;
568;SDS011;269;48.884;9.192;2023-02-07T04:35:52;17.13;;;14.35;;
568;SDS011;269;48.884;9.192;2023-02-07T04:38:20;17.40;;;13.95;;
568;SDS011;269;48.884;9.192;2023-02-07T04:40:47;17.23;;;14.43;;
568;SDS011;269;48.884;9.192;2023-02-07T04:43:15;18.50;;;14.32;;
568;SDS011;269;48.884;9.192;2023-02-07T04:45:44;17.50;;;14.98;;
568;SDS011;269;48.884;9.192;2023-02-07T04:48:11;16.67;;;14.55;;
568;SDS011;269;48.884;9.192;2023-02-07T04:50:39;15.90;;;14.23;;
568;SDS011;269;48.884;9.192;2023-02-07T04:53:06;17.30;;;15.30;;
568;SDS011;269;48.884;9.192;2023-02-07T04:55:33;16.40;;;14.70;;
568;SDS011;269;48.884;9.192;2023-02-07T04:58:01;14.93;;;13.30;;
568;SDS011;269;48.884;9.192;2023-02-07T05:00:29;16.80;;;14.18;;
568;SDS011;269;48.884;9.192;2023-02-07T05:02:57;17.02;;;15.23;;
568;SDS011;269;48.884;9.192;2023-02-07T05:05:25;16.25;;;14.57;;
568;SDS011;269;48.884;9.192;2023-02-07T05:07:52;16.45;;;14.77;;
568;SDS011;269;48.884;9.192;2023-02-07T05:10:19;18.30;;;15.10;;
568;SDS011;269;48.884;9.192;2023-02-07T05:12:46;16.60;;;14.85;;
568;SDS011;269;48.884;9.192;2023-02-07T05:15:13;16.83;;;14.90;;
568;SDS011;269;48.884;9.192;2023-02-07T05:17:42;17.15;;;14.98;;
568;SDS011;269;48.884;9.192;2023-02-07T05:20:09;16.80;;;15.10;;
568;SDS011;269;48.884;9.192;2023-02-07T05:22:37;15.98;;;14.38;;
568;SDS011;269;48.884;9.192;2023-02-07T05:25:04;17.38;;;15.57;;
568;SDS011;269;48.884;9.192;2023-02-07T05:27:31;17.13;;;14.90;;
568;SDS011;269;48.884;9.192;2023-02-07T05:29:58;17.52;;;14.93;;
568;SDS011;269;48.884;9.192;2023-02-07T05:32:25;15.45;;;13.93;;
568;SDS011;269;48.884;9.192;2023-02-07T05:35:11;16.05;;;14.48;;
568;SDS011;269;48.884;9.192;2023-02-07T05:37:38;15.05;;;13.02;;
568;SDS011;269;48.884;9.192;2023-02-07T05:40:05;16.30;;;14.60;;
568;SDS011;269;48.884;9.192;2023-02-07T05:42:33;16.95;;;14.05;;
568;SDS011;269;48.884;9.192;2023-02-07T05:45:00;13.95;;;12.55;;
568;SDS011;269;48.884;9.192;2023-02-07T05:47:27;14.82;;;13.38;;
568;SDS011;269;48.884;9.192;2023-02-07T05:49:54;15.05;;;13.55;;
568;SDS011;269;48.884;9.192;2023-02-07T05:52:23;15.75;;;14.15;;
568;SDS011;269;48.884;9.192;2023-02-07T05:54:50;15.40;;;13.80;;
568;SDS011;269;48.884;9.192;2023-02-07T05:57:17;15.48;;;13.25;;
568;SDS011;269;48.884;9.192;2023-02-07T05:59:44;14.70;;;13.07;;
568;SDS011;269;48.884;9.192;2023-02-07T06:02:11;15.48;;;13.93;;
568;SDS011;269;48.884;9.192;2023-02-07T06:04:38;14.48;;;12.93;;
568;SDS011;269;48.884;9.192;2023-02-07T06:07:05;14.77;;;13.25;;
568;SDS011;269;48.884;9.192;2023-02-07T06:09:34;14.45;;;13.00;;
568;SDS011;269;48.884;9.192;2023-02-07T06:12:01;14.15;;;12.65;;
568;SDS011;269;48.884;9.192;2023-02-07T06:14:28;15.75;;;12.98;;
568;SDS011;269;48.884;9.192;2023-02-07T06:16:55;15.20;;;12.70;;
568;SDS011;269;48.884;9.192;2023-02-07T06:19:22;16.55;;;13.30;;
568;SDS011;269;48.884;9.192;2023-02-07T06:21:49;14.07;;;12.38;;
568;SDS011;269;48.884;9.192;2023-02-07T06:24:16;14.95;;;13.35;;
568;SDS011;269;48.884;9.192;2023-02-07T06:26:44;14.98;;;11.95;;
568;SDS011;269;48.884;9.192;2023-02-07T06:29:11;13.77;;;11.63;;
568;SDS011;269;48.884;9.192;2023-02-07T06:31:38;14.55;;;12.75;;
568;SDS011;269;48.884;9.192;2023-02-07T06:34:06;13.15;;;11.75;;
568;SDS011;269;48.884;9.192;2023-02-07T06:36:32;14.38;;;12.15;;
568;SDS011;269;48.884;9.192;2023-02-07T06:38:59;15.15;;;13.43;;
568;SDS011;269;48.884;9.192;2023-02-07T06:41:27;13.15;;;11.68;;
568;SDS011;269;48.884;9.192;2023-02-07T06:43:56;14.45;;;12.95;;
568;SDS011;269;48.884;9.192;2023-02-07T06:46:23;12.80;;;11.38;;
568;SDS011;269;48.884;9.192;2023-02-07T06:48:50;13.25;;;11.55;;
568;SDS011;269;48.884;9.192;2023-02-07T06:51:17;13.95;;;12.55;;
568;SDS011;269;48.884;9.192;2023-02-07T06:53:44;13.57;;;12.02;;
568;SDS011;269;48.884;9.192;2023-02-07T06:56:11;13.48;;;12.18;;
568;SDS011;269;48.884;9.192;2023-02-07T06:58:38;15.55;;;13.80;;
568;SDS011;269;48.884;9.192;2023-02-07T07:01:06;18.23;;;16.23;;
568;SDS011;269;48.884;9.192;2023-02-07T07:03:33;17.13;;;14.68;;
568;SDS011;269;48.884;9.192;2023-02-07T07:06:00;18.75;;;14.88;;
568;SDS011;269;48.884;9.192;2023-02-07T07:08:27;16.77;;;14.25;;
568;SDS011;269;48.884;9.192;2023-02-07T07:10:54;17.17;;;13.82;;
568;SDS011;269;48.884;9.192;2023-02-07T07:13:22;17.38;;;15.57;;
568;SDS011;269;48.884;9.192;2023-02-07T07:15:49;14.88;;;13.27;;
568;SDS011;269;48.884;9.192;2023-02-07T07:18:17;15.82;;;12.50;;
568;SDS011;269;48.884;9.192;2023-02-07T07:20:44;14.68;;;11.68;;
568;SDS011;269;48.884;9.192;2023-02-07T07:23:11;13.98;;;11.90;;
568;SDS011;269;48.884;9.192;2023-02-07T07:25:38;13.23;;;11.90;;
568;SDS011;269;48.884;9.192;2023-02-07T07:28:05;12.00;;;10.80;;
568;SDS011;269;48.884;9.192;2023-02-07T07:30:32;11.10;;;10.00;;
568;SDS011;269;48.884;9.192;2023-02-07T07:33:00;12.95;;;11.07;;
568;SDS011;269;48.884;9.192;2023-02-07T07:35:28;12.35;;;11.05;;
568;SDS011;269;48.884;9.192;2023-02-07T07:37:55;13.05;;;10.45;;
568;SDS011;269;48.884;9.192;2023-02-07T07:40:22;13.18;;;11.50;;
568;SDS011;269;48.884;9.192;2023-02-07T07:42:49;11.77;;;10.57;;
568;SDS011;269;48.884;9.192;2023-02-07T07:45:16;11.18;;;10.07;;
568;SDS011;269;48.884;9.192;2023-02-07T07:47:44;13.02;;;11.63;;
568;SDS011;269;48.884;9.192;2023-02-07T07:50:11;11.90;;;10.70;;
568;SDS011;269;48.884;9.192;2023-02-07T07:52:39;12.45;;;11.15;;
568;SDS011;269;48.884;9.192;2023-02-07T07:55:07;11.23;;;9.88;;
568;SDS011;269;48.884;9.192;2023-02-07T07:57:35;12.02;;;10.85;;
568;SDS011;269;48.884;9.192;2023-02-07T08:00:02;11.45;;;10.35;;
568;SDS011;269;48.884;9.192;2023-02-07T08:02:30;12.00;;;10.80;;
568;SDS011;269;48.884;9.192;2023-02-07T08:04:57;11.27;;;10.20;;
568;SDS011;269;48.884;9.192;2023-02-07T08:07:24;13.43;;;11.40;;
568;SDS011;269;48.884;9.192;2023-02-07T08:09:53;10.07;;;9.18;;
568;SDS011;269;48.884;9.192;2023-02-07T08:12:20;10.82;;;9.82;;
568;SDS011;269;48.884;9.192;2023-02-07T08:14:47;10.35;;;9.45;;
568;SDS011;269;48.884;9.192;2023-02-07T08:17:14;10.18;;;9.15;;
568;SDS011;269;48.884;9.192;2023-02-07T08:19:41;10.98;;;9.85;;
568;SDS011;269;48.884;9.192;2023-02-07T08:22:08;11.32;;;10.23;;
568;SDS011;269;48.884;9.192;2023-02-07T08:24:35;11.18;;;10.07;;
568;SDS011;269;48.884;9.192;2023-02-07T08:27:03;11.70;;;10.20;;
568;SDS011;269;48.884;9.192;2023-02-07T08:29:30;11.98;;;10.30;;
568;SDS011;269;48.884;9.192;2023-02-07T08:31:58;11.50;;;9.95;;
568;SDS011;269;48.884;9.192;2023-02-07T08:34:25;10.23;;;9.18;;
568;SDS011;269;48.884;9.192;2023-02-07T08:36:53;10.55;;;9.55;;
568;SDS011;269;48.884;9.192;2023-02-07T08:39:20;10.82;;;9.80;;
568;SDS011;269;48.884;9.192;2023-02-07T08:41:47;10.38;;;9.15;;
568;SDS011;269;48.884;9.192;2023-02-07T08:44:15;12.15;;;10.52;;
568;SDS011;269;48.884;9.192;2023-02-07T08:46:42;11.55;;;9.82;;
568;SDS011;269;48.884;9.192;2023-02-07T08:49:09;10.15;;;9.25;;
568;SDS011;269;48.884;9.192;2023-02-07T08:51:36;9.88;;;9.05;;
568;SDS011;269;48.884;9.192;2023-02-07T08:54:04;10.50;;;9.60;;
568;SDS011;269;48.884;9.192;2023-02-07T08:56:31;10.80;;;9.80;;
568;SDS011;269;48.884;9.192;2023-02-07T08:58:58;9.50;;;8.70;;
568;SDS011;269;48.884;9.192;2023-02-07T09:01:27;9.80;;;8.90;;
568;SDS011;269;48.884;9.192;2023-02-07T09:03:54;9.18;;;8.38;;
568;SDS011;269;48.884;9.192;2023-02-07T09:06:21;9.38;;;8.48;;
568;SDS011;269;48.884;9.192;2023-02-07T09:08:49;10.00;;;9.10;;
568;SDS011;269;48.884;9.192;2023-02-07T09:11:17;11.00;;;9.90;;
568;SDS011;269;48.884;9.192;2023-02-07T09:13:44;12.27;;;11.27;;
568;SDS011;269;48.884;9.192;2023-02-07T09:16:11;11.82;;;10.55;;
568;SDS011;269;48.884;9.192;2023-02-07T09:18:41;10.00;;;9.10;;
568;SDS011;269;48.884;9.192;2023-02-07T09:21:08;9.60;;;8.70;;
568;SDS011;269;48.884;9.192;2023-02-07T09:23:35;10.32;;;9.43;;
568;SDS011;269;48.884;9.192;2023-02-07T09:26:03;9.93;;;9.13;;
568;SDS011;269;48.884;9.192;2023-02-07T09:28:32;11.38;;;9.57;;
568;SDS011;269;48.884;9.192;2023-02-07T09:31:05;10.73;;;9.68;;
568;SDS011;269;48.884;9.192;2023-02-07T09:33:33;10.57;;;9.77;;
568;SDS011;269;48.884;9.192;2023-02-07T09:36:02;10.45;;;9.55;;
568;SDS011;269;48.884;9.192;2023-02-07T09:38:30;9.93;;;9.10;;
568;SDS011;269;48.884;9.192;2023-02-07T09:40:58;9.48;;;8.63;;
568;SDS011;269;48.884;9.192;2023-02-07T09:43:28;10.70;;;9.80;;
568;SDS011;269;48.884;9.192;2023-02-07T09:46:00;9.93;;;9.10;;
568;SDS011;269;48.884;9.192;2023-02-07T09:48:33;10.88;;;9.98;;
568;SDS011;269;48.884;9.192;2023-02-07T09:51:12;9.73;;;8.93;;
568;SDS011;269;48.884;9.192;2023-02-07T09:53:43;9.50;;;8.80;;
568;SDS011;269;48.884;9.192;2023-02-07T09:56:16;10.55;;;9.40;;
568;SDS011;269;48.884;9.192;2023-02-07T09:58:46;10.45;;;9.55;;
568;SDS011;269;48.884;9.192;2023-02-07T10:01:20;10.20;;;9.20;;
568;SDS011;269;48.884;9.192;2023-02-07T10:03:50;9.10;;;8.30;;
568;SDS011;269;48.884;9.192;2023-02-07T10:06:29;9.93;;;9.13;;
568;SDS011;269;48.884;9.192;2023-02-07T10:08:57;9.60;;;8.80;;
568;SDS011;269;48.884;9.192;2023-02-07T10:11:29;9.77;;;8.98;;
568;SDS011;269;48.884;9.192;2023-02-07T10:14:11;10.20;;;9.30;;
568;SDS011;269;48.884;9.192;2023-02-07T10:16:50;9.65;;;8.85;;
568;SDS011;269;48.884;9.192;2023-02-07T10:19:34;10.50;;;9.60;;
568;SDS011;269;48.884;9.192;2023-02-07T10:22:18;10.95;;;10.00;;
568;SDS011;269;48.884;9.192;2023-02-07T10:24:54;10.00;;;9.20;;
568;SDS011;269;48.884;9.192;2023-02-07T10:27:36;11.32;;;10.18;;
568;SDS011;269;48.884;9.192;2023-02-07T10:30:12;9.85;;;8.95;;
568;SDS011;269;48.884;9.192;2023-02-07T10:32:41;9.38;;;8.50;;
568;SDS011;269;48.884;9.192;2023-02-07T10:35:14;10.50;;;9.70;;
568;SDS011;269;48.884;9.192;2023-02-07T10:37:45;9.50;;;8.70;;
568;SDS011;269;48.884;9.192;2023-02-07T10:40:17;9.90;;;9.02;;
568;SDS011;269;48.884;9.192;2023-02-07T10:42:49;10.00;;;9.10;;
568;SDS011;269;48.884;9.192;2023-02-07T10:45:22;10.93;;;9.93;;
568;SDS011;269;48.884;9.192;2023-02-07T10:47:50;9.60;;;8.80;;
568;SDS011;269;48.884;9.192;2023-02-07T10:50:18;9.67;;;8.80;;
568;SDS011;269;48.884;9.192;2023-02-07T10:52:50;9.77;;;8.97;;
568;SDS011;269;48.884;9.192;2023-02-07T10:58:02;10.80;;;9.80;;
568;SDS011;269;48.884;9.192;2023-02-07T11:00:29;9.87;;;9.07;;
568;SDS011;269;48.884;9.192;2023-02-07T11:02:59;10.73;;;9.70;;
568;SDS011;269;48.884;9.192;2023-02-07T11:05:33;11.30;;;10.30;;
568;SDS011;269;48.884;9.192;2023-02-07T11:08:04;10.20;;;9.30;;
568;SDS011;269;48.884;9.192;2023-02-07T11:10:34;9.50;;;8.70;;
568;SDS011;269;48.884;9.192;2023-02-07T11:13:02;10.63;;;9.73;;
568;SDS011;269;48.884;9.192;2023-02-07T11:15:45;10.63;;;9.80;;
568;SDS011;269;48.884;9.192;2023-02-07T11:18:25;10.90;;;9.90;;
568;SDS011;269;48.884;9.192;2023-02-07T11:21:02;10.57;;;9.67;;
568;SDS011;269;48.884;9.192;2023-02-07T11:23:32;9.73;;;8.87;;
568;SDS011;269;48.884;9.192;2023-02-07T11:26:00;10.73;;;9.70;;
568;SDS011;269;48.884;9.192;2023-02-07T11:28:29;10.50;;;9.60;;
568;SDS011;269;48.884;9.192;2023-02-07T11:30:59;10.60;;;9.70;;
568;SDS011;269;48.884;9.192;2023-02-07T11:33:31;10.03;;;9.23;;
568;SDS011;269;48.884;9.192;2023-02-07T11:36:02;10.00;;;9.10;;
568;SDS011;269;48.884;9.192;2023-02-07T11:38:36;9.57;;;8.77;;
568;SDS011;269;48.884;9.192;2023-02-07T11:41:09;10.07;;;9.27;;
568;SDS011;269;48.884;9.192;2023-02-07T11:43:50;10.20;;;9.40;;
568;SDS011;269;48.884;9.192;2023-02-07T11:46:23;10.43;;;9.53;;
568;SDS011;269;48.884;9.192;2023-02-07T11:49:00;10.47;;;9.57;;
568;SDS011;269;48.884;9.192;2023-02-07T11:51:28;9.43;;;8.73;;
568;SDS011;269;48.884;9.192;2023-02-07T11:53:59;9.70;;;8.90;;
568;SDS011;269;48.884;9.192;2023-02-07T11:56:30;9.47;;;8.77;;
568;SDS011;269;48.884;9.192;2023-02-07T11:58:59;9.10;;;8.40;;
568;SDS011;269;48.884;9.192;2023-02-07T12:01:31;9.67;;;8.90;;
568;SDS011;269;48.884;9.192;2023-02-07T12:04:01;9.70;;;8.90;;
568;SDS011;269;48.884;9.192;2023-02-07T12:06:37;11.37;;;10.47;;
568;SDS011;269;48.884;9.192;2023-02-07T12:09:11;10.50;;;9.70;;
568;SDS011;269;48.884;9.192;2023-02-07T12:11:48;9.80;;;8.90;;
568;SDS011;269;48.884;9.192;2023-02-07T12:14:21;10.53;;;9.53;;
568;SDS011;269;48.884;9.192;2023-02-07T12:16:53;10.13;;;9.33;;
568;SDS011;269;48.884;9.192;2023-02-07T12:19:24;9.80;;;9.10;;
568;SDS011;269;48.884;9.192;2023-02-07T12:21:56;8.80;;;8.10;;
568;SDS011;269;48.884;9.192;2023-02-07T12:24:31;10.10;;;9.20;;
568;SDS011;269;48.884;9.192;2023-02-07T12:27:04;7.60;;;7.00;;
568;SDS011;269;48.884;9.192;2023-02-07T12:29:42;5.53;;;5.03;;
568;SDS011;269;48.884;9.192;2023-02-07T12:32:20;8.30;;;7.60;;
568;SDS011;269;48.884;9.192;2023-02-07T12:34:57;8.67;;;7.97;;
568;SDS011;269;48.884;9.192;2023-02-07T12:37:31;8.73;;;7.93;;
568;SDS011;269;48.884;9.192;2023-02-07T12:40:09;8.97;;;8.20;;
568;SDS011;269;48.884;9.192;2023-02-07T12:42:44;8.07;;;7.37;;
568;SDS011;269;48.884;9.192;2023-02-07T12:45:17;8.80;;;7.60;;
568;SDS011;269;48.884;9.192;2023-02-07T12:47:54;7.53;;;6.80;;
568;SDS011;269;48.884;9.192;2023-02-07T12:50:43;7.50;;;6.90;;
568;SDS011;269;48.884;9.192;2023-02-07T12:53:23;8.60;;;7.80;;
568;SDS011;269;48.884;9.192;2023-02-07T12:56:04;8.10;;;7.40;;
568;SDS011;269;48.884;9.192;2023-02-07T12:58:45;12.60;;;11.70;;
568;SDS011;269;48.884;9.192;2023-02-07T13:01:19;9.67;;;8.97;;
568;SDS011;269;48.884;9.192;2023-02-07T13:03:58;9.33;;;8.53;;
568;SDS011;269;48.884;9.192;2023-02-07T13:06:39;7.60;;;6.77;;
568;SDS011;269;48.884;9.192;2023-02-07T13:09:29;7.23;;;6.63;;
568;SDS011;269;48.884;9.192;2023-02-07T13:12:05;7.37;;;6.77;;
568;SDS011;269;48.884;9.192;2023-02-07T13:14:39;7.30;;;6.63;;
568;SDS011;269;48.884;9.192;2023-02-07T13:17:25;6.63;;;6.13;;
568;SDS011;269;48.884;9.192;2023-02-07T13:19:59;7.97;;;7.13;;
568;SDS011;269;48.884;9.192;2023-02-07T13:22:32;7.40;;;6.80;;
568;SDS011;269;48.884;9.192;2023-02-07T13:25:03;6.80;;;6.30;;
568;SDS011;269;48.884;9.192;2023-02-07T13:27:35;8.13;;;6.47;;
568;SDS011;269;48.884;9.192;2023-02-07T13:30:02;8.07;;;6.28;;
568;SDS011;269;48.884;9.192;2023-02-07T13:32:31;6.67;;;6.13;;
568;SDS011;269;48.884;9.192;2023-02-07T13:34:59;7.13;;;6.50;;
568;SDS011;269;48.884;9.192;2023-02-07T13:37:33;6.57;;;6.00;;
568;SDS011;269;48.884;9.192;2023-02-07T13:40:13;6.90;;;6.32;;
568;SDS011;269;48.884;9.192;2023-02-07T13:42:50;7.65;;;6.35;;
568;SDS011;269;48.884;9.192;2023-02-07T13:45:26;7.33;;;6.73;;
568;SDS011;269;48.884;9.192;2023-02-07T13:48:01;7.60;;;6.90;;
568;SDS011;269;48.884;9.192;2023-02-07T13:50:38;46.57;;;17.90;;
568;SDS011;269;48.884;9.192;2023-02-07T13:53:16;6.95;;;6.35;;
568;SDS011;269;48.884;9.192;2023-02-07T13:55:53;16.13;;;8.90;;
568;SDS011;269;48.884;9.192;2023-02-07T14:01:37;7.30;;;6.60;;
568;SDS011;269;48.884;9.192;2023-02-07T14:04:15;8.63;;;7.15;;
568;SDS011;269;48.884;9.192;2023-02-07T14:06:43;7.35;;;6.75;;
568;SDS011;269;48.884;9.192;2023-02-07T14:09:22;7.18;;;6.47;;
568;SDS011;269;48.884;9.192;2023-02-07T14:11:55;13.85;;;9.90;;
568;SDS011;269;48.884;9.192;2023-02-07T14:14:27;7.55;;;6.82;;
568;SDS011;269;48.884;9.192;2023-02-07T14:16:56;14.80;;;10.80;;
568;SDS011;269;48.884;9.192;2023-02-07T14:22:18;7.25;;;6.65;;
568;SDS011;269;48.884;9.192;2023-02-07T14:30:35;12.43;;;9.30;;
568;SDS011;269;48.884;9.192;2023-02-07T14:33:11;7.47;;;6.78;;
568;SDS011;269;48.884;9.192;2023-02-07T14:38:43;7.07;;;6.47;;
568;SDS011;269;48.884;9.192;2023-02-07T14:41:25;8.57;;;7.68;;
568;SDS011;269;48.884;9.192;2023-02-07T14:43:55;7.15;;;6.45;;
568;SDS011;269;48.884;9.192;2023-02-07T14:46:26;7.38;;;6.78;;
568;SDS011;269;48.884;9.192;2023-02-07T14:48:58;6.63;;;5.93;;
568;SDS011;269;48.884;9.192;2023-02-07T14:51:31;6.80;;;6.20;;
568;SDS011;269;48.884;9.192;2023-02-07T14:54:06;7.53;;;6.70;;
568;SDS011;269;48.884;9.192;2023-02-07T14:56:42;8.77;;;6.85;;
568;SDS011;269;48.884;9.192;2023-02-07T14:59:13;7.63;;;6.70;;
568;SDS011;269;48.884;9.192;2023-02-07T15:01:47;7.60;;;6.18;;
568;SDS011;269;48.884;9.192;2023-02-07T15:04:14;7.05;;;6.35;;
568;SDS011;269;48.884;9.192;2023-02-07T15:06:42;7.13;;;6.07;;
568;SDS011;269;48.884;9.192;2023-02-07T15:09:16;6.30;;;5.80;;
568;SDS011;269;48.884;9.192;2023-02-07T15:11:45;7.50;;;6.00;;
568;SDS011;269;48.884;9.192;2023-02-07T15:14:19;6.95;;;6.10;;
568;SDS011;269;48.884;9.192;2023-02-07T15:16:52;8.00;;;7.30;;
568;SDS011;269;48.884;9.192;2023-02-07T15:19:21;6.88;;;6.28;;
568;SDS011;269;48.884;9.192;2023-02-07T15:21:51;7.30;;;6.60;;
568;SDS011;269;48.884;9.192;2023-02-07T15:24:21;6.30;;;5.65;;
568;SDS011;269;48.884;9.192;2023-02-07T15:26:54;6.10;;;5.60;;
568;SDS011;269;48.884;9.192;2023-02-07T15:29:23;7.43;;;6.53;;
568;SDS011;269;48.884;9.192;2023-02-07T15:31:53;6.95;;;6.22;;
568;SDS011;269;48.884;9.192;2023-02-07T15:34:21;6.88;;;6.15;;
568;SDS011;269;48.884;9.192;2023-02-07T15:36:56;8.20;;;5.90;;
568;SDS011;269;48.884;9.192;2023-02-07T15:39:26;7.00;;;5.70;;
568;SDS011;269;48.884;9.192;2023-02-07T15:41:55;4.78;;;4.32;;
568;SDS011;269;48.884;9.192;2023-02-07T15:44:23;5.38;;;4.85;;
568;SDS011;269;48.884;9.192;2023-02-07T15:46:53;6.10;;;5.30;;
568;SDS011;269;48.884;9.192;2023-02-07T15:49:26;5.15;;;4.70;;
568;SDS011;269;48.884;9.192;2023-02-07T15:51:56;5.20;;;4.70;;
568;SDS011;269;48.884;9.192;2023-02-07T15:54:27;6.03;;;5.18;;
568;SDS011;269;48.884;9.192;2023-02-07T15:56:56;5.85;;;5.35;;
568;SDS011;269;48.884;9.192;2023-02-07T15:59:26;8.25;;;5.78;;
568;SDS011;269;48.884;9.192;2023-02-07T16:01:57;11.20;;;7.82;;
568;SDS011;269;48.884;9.192;2023-02-07T16:04:28;15.15;;;9.20;;
568;SDS011;269;48.884;9.192;2023-02-07T16:06:58;16.38;;;10.65;;
568;SDS011;269;48.884;9.192;2023-02-07T16:09:35;14.95;;;8.85;;
568;SDS011;269;48.884;9.192;2023-02-07T16:14:56;9.00;;;7.68;;